地図

経路データ

SID SEASON NUMBER BASIN SUBBASIN NAME ISO_TIME NATURE LAT LON WMO_WIND WMO_PRES WMO_AGENCY TRACK_TYPE DIST2LAND LANDFALL IFLAG USA_AGENCY USA_ATCF_ID USA_LAT USA_LON USA_RECORD USA_STATUS USA_WIND USA_PRES USA_SSHS USA_R34_NE USA_R34_SE USA_R34_SW USA_R34_NW USA_R50_NE USA_R50_SE USA_R50_SW USA_R50_NW USA_R64_NE USA_R64_SE USA_R64_SW USA_R64_NW USA_POCI USA_ROCI USA_RMW USA_EYE TOKYO_LAT TOKYO_LON TOKYO_GRADE TOKYO_WIND TOKYO_PRES TOKYO_R50_DIR TOKYO_R50_LONG TOKYO_R50_SHORT TOKYO_R30_DIR TOKYO_R30_LONG TOKYO_R30_SHORT TOKYO_LAND CMA_LAT CMA_LON CMA_CAT CMA_WIND CMA_PRES HKO_LAT HKO_LON HKO_CAT HKO_WIND HKO_PRES NEWDELHI_LAT NEWDELHI_LON NEWDELHI_GRADE NEWDELHI_WIND NEWDELHI_PRES NEWDELHI_CI NEWDELHI_DP NEWDELHI_POCI REUNION_LAT REUNION_LON REUNION_TYPE REUNION_WIND REUNION_PRES REUNION_TNUM REUNION_CI REUNION_RMW REUNION_R34_NE REUNION_R34_SE REUNION_R34_SW REUNION_R34_NW REUNION_R50_NE REUNION_R50_SE REUNION_R50_SW REUNION_R50_NW REUNION_R64_NE REUNION_R64_SE REUNION_R64_SW REUNION_R64_NW BOM_LAT BOM_LON BOM_TYPE BOM_WIND BOM_PRES BOM_TNUM BOM_CI BOM_RMW BOM_R34_NE BOM_R34_SE BOM_R34_SW BOM_R34_NW BOM_R50_NE BOM_R50_SE BOM_R50_SW BOM_R50_NW BOM_R64_NE BOM_R64_SE BOM_R64_SW BOM_R64_NW BOM_ROCI BOM_POCI BOM_EYE BOM_POS_METHOD BOM_PRES_METHOD NADI_LAT NADI_LON NADI_CAT NADI_WIND NADI_PRES WELLINGTON_LAT WELLINGTON_LON WELLINGTON_WIND WELLINGTON_PRES DS824_LAT DS824_LON DS824_STAGE DS824_WIND DS824_PRES TD9636_LAT TD9636_LON TD9636_STAGE TD9636_WIND TD9636_PRES TD9635_LAT TD9635_LON TD9635_WIND TD9635_PRES TD9635_ROCI NEUMANN_LAT NEUMANN_LON NEUMANN_CLASS NEUMANN_WIND NEUMANN_PRES MLC_LAT MLC_LON MLC_CLASS MLC_WIND MLC_PRES USA_GUST BOM_GUST BOM_GUST_PER REUNION_GUST REUNION_GUST_PER USA_SEAHGT USA_SEARAD_NE USA_SEARAD_SE USA_SEARAD_SW USA_SEARAD_NW STORM_SPEED STORM_DIR
1930217N14145 1930 38 WP MM NOT_NAMED 1930-08-05 10:00:00 NR 13.5000 144.700 main 1760 1760 __________O___ -1 13.5000 144.700 7 7 310
1930217N14145 1930 38 WP MM NOT_NAMED 1930-08-05 12:00:00 NR 13.6389 144.528 main 1774 1785 __________P___ -1 13.6389 144.528 7 6 310
1930217N14145 1930 38 WP MM NOT_NAMED 1930-08-05 15:00:00 NR 13.8451 144.277 main 1799 1810 __________P___ -1 13.8451 144.277 7 6 311
1930217N14145 1930 38 WP MM NOT_NAMED 1930-08-05 18:00:00 NR 14.0459 144.049 main 1826 1837 __________P___ -1 14.0459 144.049 7 6 314
1930217N14145 1930 38 WP MM NOT_NAMED 1930-08-05 21:00:00 NR 14.2383 143.855 main 1850 1852 __________P___ -1 14.2383 143.855 7 5 317
1930217N14145 1930 38 WP MM NOT_NAMED 1930-08-05 22:00:00 NR 14.3000 143.800 main 1863 1863 __________O___ -1 14.3000 143.800 2 5 322
1930217N14145 1930 38 WP MM NOT_NAMED 1930-08-06 00:00:00 NR 14.4197 143.708 main 1875 1875 __________P___ -1 14.4197 143.708 2 4 328
1930217N14145 1930 38 WP MM NOT_NAMED 1930-08-06 03:00:00 NR 14.5929 143.607 main 1899 1899 __________P___ -1 14.5929 143.607 2 4 335
1930217N14145 1930 38 WP MM NOT_NAMED 1930-08-06 06:00:00 NR 14.7641 143.544 main 1923 1923 __________P___ -1 14.7641 143.544 2 4 344
1930217N14145 1930 38 WP MM NOT_NAMED 1930-08-06 09:00:00 NR 14.9395 143.508 main 1934 1934 __________P___ -1 14.9395 143.508 2 4 349
1930217N14145 1930 38 WP MM NOT_NAMED 1930-08-06 10:00:00 NR 15.0000 143.500 main 1945 1945 __________O___ -1 15.0000 143.500 2 4 342
1930217N14145 1930 38 WP MM NOT_NAMED 1930-08-06 12:00:00 NR 15.1197 143.454 main 1956 1956 __________P___ -1 15.1197 143.454 2 4 342
1930217N14145 1930 38 WP MM NOT_NAMED 1930-08-06 15:00:00 NR 15.3053 143.404 main 1964 1964 __________P___ -1 15.3053 143.404 2 4 352
1930217N14145 1930 38 WP MM NOT_NAMED 1930-08-06 18:00:00 NR 15.5040 143.397 main 1967 1967 __________P___ -1 15.5040 143.397 2 4 8
1930217N14145 1930 38 WP MM NOT_NAMED 1930-08-06 21:00:00 NR 15.7219 143.460 main 1981 1981 __________P___ -1 15.7219 143.460 2 5 18
1930217N14145 1930 38 WP MM NOT_NAMED 1930-08-06 22:00:00 NR 15.8000 143.500 main 1983 1983 __________O___ -1 15.8000 143.500 3 6 28
1930217N14145 1930 38 WP MM NOT_NAMED 1930-08-07 00:00:00 NR 15.9818 143.599 main 1997 1997 __________P___ -1 15.9818 143.599 3 7 33
1930217N14145 1930 38 WP MM NOT_NAMED 1930-08-07 03:00:00 NR 16.2738 143.817 main 2024 2024 __________P___ -1 16.2738 143.817 3 8 40
1930217N14145 1930 38 WP MM NOT_NAMED 1930-08-07 06:00:00 NR 16.5641 144.110 main 2052 2044 __________P___ -1 16.5641 144.110 3 8 49
1930217N14145 1930 38 WP MM NOT_NAMED 1930-08-07 09:00:00 NR 16.8246 144.468 main 2048 2038 __________P___ -1 16.8246 144.468 3 9 54
1930217N14145 1930 38 WP MM NOT_NAMED 1930-08-07 10:00:00 NR 16.9000 144.600 main 2042 2036 __________O___ -1 16.9000 144.600 4 9 63
1930217N14145 1930 38 WP MM NOT_NAMED 1930-08-07 12:00:00 NR 17.0296 144.881 main 2045 2038 __________P___ -1 17.0296 144.881 4 9 68
1930217N14145 1930 38 WP MM NOT_NAMED 1930-08-07 15:00:00 NR 17.1787 145.338 main 2043 2048 __________P___ -1 17.1787 145.338 4 9 74
1930217N14145 1930 38 WP MM NOT_NAMED 1930-08-07 18:00:00 NR 17.2879 145.825 main 2050 2051 __________P___ -1 17.2879 145.825 4 10 78
1930217N14145 1930 38 WP MM NOT_NAMED 1930-08-07 21:00:00 NR 17.3737 146.330 main 2054 2057 __________P___ -1 17.3737 146.330 4 10 80
1930217N14145 1930 38 WP MM NOT_NAMED 1930-08-07 22:00:00 NR 17.4000 146.500 main 2060 __________O___ -1 17.4000 146.500 7 10 81

デジタル台風データ・検索

IBTrACS Databaseについて

本データベースは、米国NOAAが公開する1842年以降の世界の熱帯低気圧のベストトラックデータアーカイブInternational Best Track Archive for Climate Stewardship (IBTrACS)を、ウェブで閲覧しやすい形式に変換したものです。

最終更新日:2021-12-06